createdAt,value
2022-09-07T00:01:26.656Z,13.00
2022-09-07T00:03:56.917Z,12.90
2022-09-07T00:06:26.346Z,12.90
2022-09-07T00:08:55.149Z,12.90
2022-09-07T00:11:24.131Z,12.70
2022-09-07T00:13:52.859Z,12.70
2022-09-07T00:16:25.814Z,12.60
2022-09-07T00:18:55.862Z,12.50
2022-09-07T00:21:25.443Z,12.50
2022-09-07T00:23:54.792Z,12.30
2022-09-07T00:26:25.310Z,12.30
2022-09-07T00:28:54.424Z,12.40
2022-09-07T00:31:25.610Z,12.20
2022-09-07T00:33:56.132Z,12.20
2022-09-07T00:36:25.449Z,12.30
2022-09-07T00:38:55.075Z,12.20
2022-09-07T00:41:24.295Z,12.20
2022-09-07T00:43:55.236Z,12.20
2022-09-07T00:46:27.928Z,12.20
2022-09-07T00:49:02.522Z,12.30
2022-09-07T00:51:34.624Z,12.50
2022-09-07T00:54:07.765Z,12.40
2022-09-07T00:56:40.110Z,12.40
2022-09-07T00:59:09.522Z,12.40
2022-09-07T01:01:40.681Z,12.30
2022-09-07T01:04:10.592Z,12.30
2022-09-07T01:06:42.544Z,12.30
2022-09-07T01:09:13.960Z,12.20
2022-09-07T01:11:45.718Z,12.10
2022-09-07T01:14:17.052Z,12.00
2022-09-07T01:16:56.958Z,11.90
2022-09-07T01:19:43.810Z,11.80
2022-09-07T01:22:34.369Z,11.80
2022-09-07T01:25:11.632Z,11.70
2022-09-07T01:28:11.242Z,11.70
2022-09-07T01:30:43.846Z,11.70
2022-09-07T01:33:34.766Z,11.70
2022-09-07T01:36:13.835Z,11.70
2022-09-07T01:38:46.546Z,11.80
2022-09-07T01:41:20.503Z,11.80
2022-09-07T01:43:55.268Z,11.80
2022-09-07T01:46:27.913Z,11.90
2022-09-07T01:49:15.419Z,12.00
2022-09-07T01:51:47.553Z,12.00
2022-09-07T01:54:22.404Z,12.10
2022-09-07T01:56:53.173Z,12.20
2022-09-07T01:59:28.295Z,12.20
2022-09-07T02:02:02.184Z,12.10
2022-09-07T02:04:36.589Z,12.00
2022-09-07T02:07:12.166Z,12.00
2022-09-07T02:09:49.724Z,12.00
2022-09-07T02:12:24.041Z,12.00
2022-09-07T02:14:58.310Z,12.00
2022-09-07T02:17:32.902Z,12.00
2022-09-07T02:20:07.654Z,11.90
2022-09-07T02:22:42.686Z,11.90
2022-09-07T02:25:14.571Z,11.80
2022-09-07T02:27:47.510Z,11.70
2022-09-07T02:30:18.152Z,11.80
2022-09-07T02:32:46.994Z,11.70
2022-09-07T02:35:16.370Z,11.70
2022-09-07T02:37:46.386Z,11.60
2022-09-07T02:40:15.218Z,11.60
2022-09-07T02:42:45.371Z,11.50
2022-09-07T02:45:16.323Z,11.50
2022-09-07T02:47:59.623Z,11.40
2022-09-07T02:50:48.983Z,11.30
2022-09-07T02:53:38.042Z,11.20
2022-09-07T02:56:18.732Z,11.10
2022-09-07T02:58:55.712Z,10.90
2022-09-07T03:01:34.613Z,11.00
2022-09-07T03:04:14.423Z,11.00
2022-09-07T03:06:46.630Z,10.90
2022-09-07T03:09:20.454Z,10.90
2022-09-07T03:11:50.308Z,10.80
2022-09-07T03:14:21.421Z,10.80
2022-09-07T03:16:52.379Z,10.70
2022-09-07T03:19:22.769Z,10.70
2022-09-07T03:21:51.395Z,10.70
2022-09-07T03:24:20.412Z,10.70
2022-09-07T03:26:50.634Z,10.70
2022-09-07T03:29:19.877Z,10.70
2022-09-07T03:31:49.095Z,10.70
2022-09-07T03:34:18.658Z,10.70
2022-09-07T03:36:49.148Z,10.70
2022-09-07T03:39:20.962Z,10.70
2022-09-07T03:41:49.903Z,10.60
2022-09-07T03:44:18.820Z,10.50
2022-09-07T03:46:47.638Z,10.40
2022-09-07T03:49:17.450Z,10.40
2022-09-07T03:51:46.394Z,10.30
2022-09-07T03:54:16.810Z,10.20
2022-09-07T03:56:45.780Z,10.20
2022-09-07T03:59:14.654Z,10.10
2022-09-07T04:01:43.752Z,10.00
2022-09-07T04:04:12.733Z,9.90
2022-09-07T04:06:41.489Z,9.90
2022-09-07T04:09:21.154Z,9.80
2022-09-07T04:11:51.417Z,9.90
2022-09-07T04:14:20.276Z,9.90
2022-09-07T04:16:49.570Z,10.00
2022-09-07T04:19:18.678Z,9.90
2022-09-07T04:21:47.592Z,9.80
2022-09-07T04:24:17.105Z,9.90
2022-09-07T04:26:46.592Z,10.00
2022-09-07T04:29:16.962Z,10.00
2022-09-07T04:31:45.750Z,10.10
2022-09-07T04:34:17.577Z,10.40
2022-09-07T04:36:46.334Z,10.60
2022-09-07T04:39:15.164Z,10.80
2022-09-07T04:41:44.030Z,10.80
2022-09-07T04:44:16.793Z,11.00
2022-09-07T04:46:47.646Z,11.30
2022-09-07T04:49:16.428Z,11.70
2022-09-07T04:51:45.354Z,12.00
2022-09-07T04:54:14.208Z,12.30
2022-09-07T04:56:43.056Z,12.60
2022-09-07T04:59:11.680Z,12.80
2022-09-07T05:01:40.323Z,13.10
2022-09-07T05:04:10.314Z,13.40
2022-09-07T05:06:38.934Z,13.60
2022-09-07T05:09:07.536Z,13.80
2022-09-07T05:11:36.130Z,14.10
2022-09-07T05:14:05.329Z,14.20
2022-09-07T05:16:33.945Z,14.20
2022-09-07T05:19:05.299Z,14.50
2022-09-07T05:21:36.327Z,14.60
2022-09-07T05:24:06.111Z,14.60
2022-09-07T05:26:36.469Z,14.60
2022-09-07T05:31:55.110Z,13.80
2022-09-07T05:34:31.449Z,13.40
2022-09-07T05:37:02.242Z,13.20
2022-09-07T05:39:31.024Z,13.10
2022-09-07T05:41:59.714Z,13.10
2022-09-07T05:44:44.403Z,13.10
2022-09-07T05:47:14.167Z,13.10
2022-09-07T05:49:43.032Z,13.20
2022-09-07T05:52:13.031Z,13.30
2022-09-07T05:54:41.614Z,13.40
2022-09-07T05:57:12.959Z,13.40
2022-09-07T05:59:41.882Z,13.40
2022-09-07T06:02:14.191Z,13.50
2022-09-07T06:04:43.051Z,13.50
2022-09-07T06:07:23.006Z,13.60
2022-09-07T06:12:43.355Z,13.70
2022-09-07T06:15:14.526Z,13.80
2022-09-07T06:17:43.100Z,14.00
2022-09-07T06:20:12.012Z,14.10
2022-09-07T06:22:41.958Z,14.20
2022-09-07T06:25:10.673Z,14.30
2022-09-07T06:27:39.236Z,14.40
2022-09-07T06:30:08.737Z,14.30
2022-09-07T06:35:11.470Z,14.60
2022-09-07T06:37:42.117Z,14.70
2022-09-07T06:40:12.047Z,14.80
2022-09-07T06:42:40.899Z,14.80
2022-09-07T06:45:11.810Z,14.90
2022-09-07T06:47:41.088Z,15.00
2022-09-07T06:50:10.930Z,15.00
2022-09-07T06:55:29.709Z,15.20
2022-09-07T06:57:58.292Z,15.40
2022-09-07T07:00:26.831Z,15.50
2022-09-07T07:02:55.479Z,15.70
2022-09-07T07:05:24.078Z,15.90
2022-09-07T07:07:54.014Z,16.00
2022-09-07T07:10:25.011Z,16.10
2022-09-07T07:12:57.646Z,16.20
2022-09-07T07:15:29.230Z,16.30
2022-09-07T07:18:09.254Z,16.60
2022-09-07T07:20:44.180Z,16.70
2022-09-07T07:23:14.111Z,16.70
2022-09-07T07:25:42.669Z,16.80
2022-09-07T07:31:04.841Z,17.00
2022-09-07T07:33:36.879Z,17.00
2022-09-07T07:36:10.400Z,17.10
2022-09-07T07:44:20.472Z,17.50
2022-09-07T07:46:50.033Z,17.70
2022-09-07T07:49:19.259Z,17.90
2022-09-07T07:54:37.932Z,18.20
2022-09-07T07:57:07.854Z,18.10
2022-09-07T07:59:36.869Z,18.30
2022-09-07T08:02:06.004Z,18.30
2022-09-07T08:04:35.843Z,18.50
2022-09-07T08:07:10.083Z,18.80
2022-09-07T08:09:42.142Z,18.70
2022-09-07T08:12:13.047Z,18.50
2022-09-07T08:14:42.095Z,18.40
2022-09-07T08:17:12.258Z,18.40
2022-09-07T08:19:41.341Z,18.50
2022-09-07T08:22:10.842Z,18.60
2022-09-07T08:24:41.072Z,18.80
2022-09-07T08:27:09.603Z,18.90
2022-09-07T08:29:38.065Z,19.00
2022-09-07T08:32:07.155Z,19.20
2022-09-07T08:34:37.688Z,19.40
2022-09-07T08:37:06.224Z,19.70
2022-09-07T08:39:35.911Z,19.70
2022-09-07T08:42:27.363Z,19.70
2022-09-07T08:45:01.630Z,19.70
2022-09-07T09:05:45.992Z,20.30
2022-09-07T09:08:28.787Z,20.80
2022-09-07T09:11:05.153Z,21.00
2022-09-07T09:13:48.335Z,21.00
2022-09-07T09:16:23.183Z,21.10
2022-09-07T09:19:06.252Z,21.60
2022-09-07T09:21:36.603Z,21.40
2022-09-07T09:24:13.918Z,21.10
2022-09-07T09:26:45.118Z,20.90
2022-09-07T09:29:14.809Z,20.70
2022-09-07T09:31:43.372Z,20.90
2022-09-07T09:34:14.354Z,20.80
2022-09-07T09:36:47.922Z,20.90
2022-09-07T09:39:33.364Z,20.90
2022-09-07T09:42:16.096Z,20.90
2022-09-07T09:44:45.644Z,21.10
2022-09-07T09:47:32.427Z,21.40
2022-09-07T09:50:04.771Z,21.70
2022-09-07T09:52:45.376Z,21.40
2022-09-07T09:55:35.926Z,21.30
2022-09-07T10:06:23.026Z,21.60
2022-09-07T10:08:57.833Z,21.90
2022-09-07T10:14:33.202Z,22.20
2022-09-07T10:17:10.327Z,21.80
2022-09-07T10:19:41.401Z,21.70
2022-09-07T10:22:23.601Z,21.70
2022-09-07T10:24:53.461Z,22.00
2022-09-07T10:27:31.383Z,22.20
2022-09-07T10:30:00.352Z,22.40
2022-09-07T10:32:50.691Z,22.70
2022-09-07T10:35:25.176Z,23.00
2022-09-07T10:38:16.054Z,23.00
2022-09-07T10:40:51.369Z,22.50
2022-09-07T10:43:28.488Z,22.30
2022-09-07T10:49:20.784Z,22.20
2022-09-07T10:52:01.049Z,22.10
2022-09-07T10:54:39.698Z,22.20
2022-09-07T10:57:29.160Z,22.40
2022-09-07T11:00:10.725Z,22.50
2022-09-07T11:06:02.034Z,22.00
2022-09-07T11:14:26.862Z,22.60
2022-09-07T11:17:00.252Z,22.40
2022-09-07T11:19:37.183Z,22.30
2022-09-07T11:22:17.105Z,22.40
2022-09-07T11:27:45.672Z,22.60
2022-09-07T11:30:20.698Z,22.80
2022-09-07T11:33:04.035Z,22.90
2022-09-07T11:35:42.023Z,23.00
2022-09-07T11:38:26.606Z,23.20
2022-09-07T11:41:07.418Z,23.40
2022-09-07T11:43:41.368Z,23.40
2022-09-07T11:46:16.094Z,23.30
2022-09-07T11:48:49.235Z,23.40
2022-09-07T11:51:24.617Z,22.90
2022-09-07T11:53:58.192Z,22.90
2022-09-07T11:56:36.367Z,22.80
2022-09-07T11:59:33.610Z,22.70
2022-09-07T12:02:57.804Z,22.70
2022-09-07T12:05:31.501Z,23.00
2022-09-07T12:08:16.352Z,22.90
2022-09-07T12:11:23.539Z,23.10
2022-09-07T12:14:04.222Z,23.40
2022-09-07T12:16:52.198Z,23.40
2022-09-07T12:19:24.581Z,23.40
2022-09-07T12:21:57.748Z,23.20
2022-09-07T12:24:39.866Z,23.30
2022-09-07T12:27:12.409Z,23.40
2022-09-07T12:29:45.275Z,23.40
2022-09-07T12:35:05.766Z,23.50
2022-09-07T12:37:44.742Z,23.50
2022-09-07T12:40:45.173Z,23.50
2022-09-07T12:43:36.898Z,23.40
2022-09-07T12:46:05.478Z,23.30
2022-09-07T12:48:47.622Z,23.30
2022-09-07T12:54:26.466Z,23.40
2022-09-07T13:00:05.425Z,23.50
2022-09-07T13:03:49.434Z,23.50
2022-09-07T13:06:05.189Z,23.30
2022-09-07T13:09:11.629Z,23.50
2022-09-07T13:11:41.174Z,23.50
2022-09-07T13:14:21.196Z,23.50
2022-09-07T13:20:19.288Z,23.30
2022-09-07T13:23:22.940Z,23.30
2022-09-07T13:25:55.928Z,23.60
2022-09-07T13:28:52.216Z,23.70
2022-09-07T13:31:42.929Z,23.70
2022-09-07T13:34:42.396Z,23.90
2022-09-07T13:37:17.762Z,23.80
2022-09-07T13:39:49.152Z,23.60
2022-09-07T13:42:20.740Z,23.60
2022-09-07T13:44:57.886Z,23.50
2022-09-07T13:47:50.359Z,23.50
2022-09-07T13:50:26.693Z,23.50
2022-09-07T13:53:31.885Z,23.50
2022-09-07T13:56:15.379Z,23.60
2022-09-07T13:58:49.374Z,23.60
2022-09-07T14:01:22.283Z,23.60
2022-09-07T14:03:55.343Z,23.40
2022-09-07T14:06:31.436Z,23.50
2022-09-07T14:09:02.510Z,23.60
2022-09-07T14:11:40.803Z,23.60
2022-09-07T14:14:22.295Z,23.60
2022-09-07T14:16:55.666Z,23.40
2022-09-07T14:19:26.886Z,23.60
2022-09-07T14:21:57.420Z,23.60
2022-09-07T14:24:31.308Z,23.60
2022-09-07T14:27:00.493Z,23.50
2022-09-07T14:29:32.126Z,23.50
2022-09-07T14:32:03.411Z,23.60
2022-09-07T14:34:35.072Z,23.50
2022-09-07T14:37:07.295Z,23.70
2022-09-07T14:39:39.096Z,23.70
2022-09-07T14:42:08.386Z,23.70
2022-09-07T14:44:40.347Z,23.60
2022-09-07T14:47:20.642Z,23.70
2022-09-07T14:49:53.020Z,23.60
2022-09-07T14:52:25.903Z,23.70
2022-09-07T14:54:54.842Z,23.60
2022-09-07T14:57:30.438Z,23.50
2022-09-07T15:00:20.539Z,23.40
2022-09-07T15:02:49.015Z,23.30
2022-09-07T15:05:29.436Z,23.30
2022-09-07T15:07:59.804Z,23.30
2022-09-07T15:10:33.077Z,23.40
2022-09-07T15:13:02.751Z,23.30
2022-09-07T15:15:34.589Z,23.10
2022-09-07T15:18:08.701Z,22.90
2022-09-07T15:20:43.254Z,22.80
2022-09-07T15:23:14.393Z,22.70
2022-09-07T15:25:48.225Z,22.70
2022-09-07T15:34:09.870Z,22.60
2022-09-07T15:36:40.737Z,22.60
2022-09-07T15:39:15.370Z,22.50
2022-09-07T15:41:43.871Z,22.60
2022-09-07T15:44:12.495Z,22.70
2022-09-07T15:47:43.166Z,22.70
2022-09-07T15:49:32.660Z,22.60
2022-09-07T15:52:08.421Z,22.60
2022-09-07T15:54:39.597Z,22.60
2022-09-07T15:59:57.371Z,22.40
2022-09-07T16:05:16.599Z,22.30
2022-09-07T16:10:33.863Z,22.20
2022-09-07T16:13:09.571Z,22.20
2022-09-07T16:15:45.943Z,22.20
2022-09-07T16:18:18.191Z,22.10
2022-09-07T16:20:47.296Z,22.00
2022-09-07T16:23:17.394Z,22.00
2022-09-07T16:25:57.733Z,21.90
2022-09-07T16:28:27.501Z,21.80
2022-09-07T16:30:56.527Z,21.70
2022-09-07T16:33:33.159Z,21.60
2022-09-07T16:36:07.170Z,21.50
2022-09-07T16:38:51.387Z,21.40
2022-09-07T16:41:22.877Z,21.30
2022-09-07T16:43:51.485Z,21.10
2022-09-07T16:46:22.434Z,21.00
2022-09-07T16:48:53.346Z,20.90
2022-09-07T16:51:23.310Z,20.90
2022-09-07T16:53:53.014Z,20.80
2022-09-07T16:56:23.550Z,20.70
2022-09-07T16:58:53.860Z,20.60
2022-09-07T17:01:24.797Z,20.50
2022-09-07T17:03:55.149Z,20.40
2022-09-07T17:06:25.780Z,20.30
2022-09-07T17:08:54.870Z,20.20
2022-09-07T17:11:25.273Z,20.10
2022-09-07T17:13:54.242Z,20.00
2022-09-07T17:16:24.800Z,19.90
2022-09-07T17:21:43.468Z,19.80
2022-09-07T17:24:12.712Z,19.60
2022-09-07T17:26:42.778Z,19.50
2022-09-07T17:29:13.071Z,19.40
2022-09-07T17:34:32.292Z,19.10
2022-09-07T17:37:01.324Z,19.00
2022-09-07T17:39:30.367Z,18.80
2022-09-07T17:41:58.882Z,18.60
2022-09-07T17:44:30.755Z,18.30
2022-09-07T17:47:00.767Z,18.20
2022-09-07T17:49:29.459Z,18.10
2022-09-07T17:52:01.022Z,18.00
2022-09-07T17:54:29.593Z,18.00
2022-09-07T17:56:58.093Z,18.00
2022-09-07T18:02:15.249Z,17.90
2022-09-07T18:04:43.906Z,17.90
2022-09-07T18:07:13.758Z,17.90
2022-09-07T18:09:42.246Z,17.90
2022-09-07T18:12:10.693Z,17.90
2022-09-07T18:14:39.252Z,17.80
2022-09-07T18:17:07.763Z,17.80
2022-09-07T18:19:36.656Z,17.80
2022-09-07T18:22:05.146Z,17.90
2022-09-07T18:24:36.955Z,17.80
2022-09-07T18:27:05.754Z,17.90
2022-09-07T18:29:34.619Z,17.80
2022-09-07T18:32:08.263Z,17.80
2022-09-07T18:34:38.093Z,17.80
2022-09-07T18:37:06.835Z,17.90
2022-09-07T18:39:36.854Z,17.90
2022-09-07T18:42:05.742Z,17.90
2022-09-07T18:47:28.444Z,18.00
2022-09-07T18:49:58.530Z,18.00
2022-09-07T18:55:18.439Z,18.00
2022-09-07T18:57:46.951Z,18.00
2022-09-07T19:00:17.634Z,18.00
2022-09-07T19:02:50.756Z,18.00
2022-09-07T19:08:08.563Z,18.00
2022-09-07T19:10:39.111Z,18.00
2022-09-07T19:13:07.596Z,18.00
2022-09-07T19:15:37.675Z,18.00
2022-09-07T19:18:08.250Z,18.00
2022-09-07T19:20:37.275Z,17.90
2022-09-07T19:23:06.839Z,17.90
2022-09-07T19:25:35.606Z,17.90
2022-09-07T19:28:05.507Z,17.80
2022-09-07T19:30:35.850Z,17.80
2022-09-07T19:33:04.799Z,17.80
2022-09-07T19:35:36.724Z,17.60
2022-09-07T19:38:05.896Z,17.60
2022-09-07T19:40:34.361Z,17.50
2022-09-07T19:43:03.071Z,17.50
2022-09-07T19:45:34.004Z,17.40
2022-09-07T19:48:02.765Z,17.40
2022-09-07T19:50:32.963Z,17.40
2022-09-07T19:53:01.711Z,17.30
2022-09-07T19:55:30.169Z,17.30
2022-09-07T19:57:58.820Z,17.30
2022-09-07T20:00:27.386Z,17.30
2022-09-07T20:02:57.182Z,17.20
2022-09-07T20:05:29.480Z,17.20
2022-09-07T20:07:58.429Z,17.20
2022-09-07T20:10:26.910Z,17.20
2022-09-07T20:12:55.376Z,17.10
2022-09-07T20:15:24.525Z,17.10
2022-09-07T20:17:53.877Z,17.10
2022-09-07T20:20:24.073Z,17.00
2022-09-07T20:22:52.598Z,16.90
2022-09-07T20:25:21.259Z,16.80
2022-09-07T20:27:49.699Z,16.80
2022-09-07T20:30:18.683Z,16.80
2022-09-07T20:32:47.097Z,16.70
2022-09-07T20:35:16.021Z,16.70
2022-09-07T20:37:46.069Z,16.50
2022-09-07T20:40:14.662Z,16.50
2022-09-07T20:42:43.185Z,16.40
2022-09-07T20:45:12.131Z,16.30
2022-09-07T20:47:40.564Z,16.30
2022-09-07T20:50:09.769Z,16.20
2022-09-07T20:52:38.322Z,16.10
2022-09-07T20:55:09.198Z,16.10
2022-09-07T20:57:38.104Z,16.10
2022-09-07T21:00:07.806Z,16.00
2022-09-07T21:02:36.555Z,16.10
2022-09-07T21:05:06.075Z,16.00
2022-09-07T21:07:34.715Z,16.00
2022-09-07T21:10:06.712Z,15.90
2022-09-07T21:12:37.100Z,15.90
2022-09-07T21:15:06.337Z,16.00
2022-09-07T21:17:34.922Z,15.90
2022-09-07T21:20:03.933Z,15.80
2022-09-07T21:22:32.772Z,15.80
2022-09-07T21:25:02.193Z,15.80
2022-09-07T21:27:38.105Z,15.80
2022-09-07T21:30:09.539Z,15.80
2022-09-07T21:32:38.087Z,15.70
2022-09-07T21:35:07.454Z,15.70
2022-09-07T21:37:36.010Z,15.70
2022-09-07T21:40:06.661Z,15.70
2022-09-07T21:42:35.235Z,15.70
2022-09-07T21:45:03.728Z,15.70
2022-09-07T21:47:33.546Z,15.70
2022-09-07T21:50:02.362Z,15.60
2022-09-07T21:52:31.531Z,15.60
2022-09-07T21:55:00.066Z,15.60
2022-09-07T21:57:28.531Z,15.50
2022-09-07T21:59:57.048Z,15.50
2022-09-07T22:02:25.584Z,15.50
2022-09-07T22:04:55.433Z,15.50
2022-09-07T22:07:23.882Z,15.50
2022-09-07T22:09:52.391Z,15.60
2022-09-07T22:12:20.935Z,15.60
2022-09-07T22:14:49.441Z,15.70
2022-09-07T22:17:17.901Z,15.80
2022-09-07T22:19:46.406Z,15.80
2022-09-07T22:22:16.194Z,15.80
2022-09-07T22:24:44.768Z,15.90
2022-09-07T22:27:13.209Z,15.90
2022-09-07T22:29:41.682Z,15.90
2022-09-07T22:32:10.126Z,15.90
2022-09-07T22:34:38.670Z,15.80
2022-09-07T22:37:07.193Z,15.90
2022-09-07T22:39:37.233Z,15.80
2022-09-07T22:42:06.071Z,15.70
2022-09-07T22:44:34.557Z,15.70
2022-09-07T22:47:02.991Z,15.70
2022-09-07T22:49:31.574Z,15.60
2022-09-07T22:52:00.076Z,15.50
2022-09-07T22:54:28.643Z,15.50
2022-09-07T22:56:58.950Z,15.50
2022-09-07T22:59:27.406Z,15.40
2022-09-07T23:01:55.892Z,15.40
2022-09-07T23:04:27.440Z,15.40
2022-09-07T23:06:59.505Z,15.40
2022-09-07T23:09:28.122Z,15.40
2022-09-07T23:11:57.927Z,15.30
2022-09-07T23:14:26.363Z,15.40
2022-09-07T23:16:55.052Z,15.30
2022-09-07T23:19:23.683Z,15.40
2022-09-07T23:21:52.218Z,15.30
2022-09-07T23:24:20.938Z,15.40
2022-09-07T23:26:49.691Z,15.30
2022-09-07T23:29:21.132Z,15.20
2022-09-07T23:31:49.662Z,15.30
2022-09-07T23:34:18.361Z,15.20
2022-09-07T23:36:46.834Z,15.20
2022-09-07T23:39:15.350Z,15.20
2022-09-07T23:41:43.791Z,15.30
2022-09-07T23:44:12.362Z,15.10
2022-09-07T23:46:42.188Z,15.10
2022-09-07T23:49:10.882Z,15.10
2022-09-07T23:51:39.359Z,15.00
2022-09-07T23:54:08.196Z,14.90
2022-09-07T23:56:37.871Z,14.90
2022-09-07T23:59:06.535Z,14.90
